createdAt,value
2018-04-11T00:01:46.492Z,68.30
2018-04-11T00:04:14.016Z,68.23
2018-04-11T00:06:41.567Z,68.27
2018-04-11T00:09:09.096Z,68.38
2018-04-11T00:11:36.733Z,68.53
2018-04-11T00:14:04.247Z,68.40
2018-04-11T00:16:31.858Z,68.40
2018-04-11T00:18:59.390Z,68.54
2018-04-11T00:21:26.906Z,68.57
2018-04-11T00:23:54.418Z,68.68
2018-04-11T00:26:21.952Z,68.70
2018-04-11T00:28:49.475Z,69.04
2018-04-11T00:31:17.098Z,69.46
2018-04-11T00:33:44.636Z,69.69
2018-04-11T00:36:12.159Z,69.70
2018-04-11T00:38:39.675Z,69.61
2018-04-11T00:41:07.187Z,69.82
2018-04-11T00:43:34.807Z,69.84
2018-04-11T00:46:02.375Z,69.86
2018-04-11T00:48:29.894Z,70.08
2018-04-11T00:50:57.484Z,70.24
2018-04-11T00:53:27.667Z,70.25
2018-04-11T00:55:55.270Z,70.48
2018-04-11T00:58:22.782Z,70.51
2018-04-11T01:00:50.383Z,70.46
2018-04-11T01:03:17.949Z,70.66
2018-04-11T01:05:45.474Z,70.52
2018-04-11T01:08:13.031Z,70.69
2018-04-11T01:10:40.615Z,70.85
2018-04-11T01:13:08.171Z,70.75
2018-04-11T01:15:35.716Z,70.84
2018-04-11T01:18:03.316Z,70.84
2018-04-11T01:20:30.936Z,70.93
2018-04-11T01:22:58.532Z,70.88
2018-04-11T01:25:26.078Z,70.99
2018-04-11T01:27:53.651Z,71.06
2018-04-11T01:30:21.179Z,70.93
2018-04-11T01:32:48.702Z,70.97
2018-04-11T01:35:16.331Z,70.90
2018-04-11T01:37:43.878Z,71.30
2018-04-11T01:40:11.404Z,71.09
2018-04-11T01:42:38.941Z,71.23
2018-04-11T01:45:06.469Z,71.37
2018-04-11T01:47:33.995Z,71.39
2018-04-11T01:50:01.516Z,71.55
2018-04-11T01:52:29.030Z,71.19
2018-04-11T01:54:56.598Z,71.41
2018-04-11T01:57:24.170Z,71.59
2018-04-11T01:59:51.724Z,71.76
2018-04-11T02:02:19.243Z,71.91
2018-04-11T02:04:46.834Z,71.99
2018-04-11T02:07:14.365Z,71.91
2018-04-11T02:09:41.987Z,72.05
2018-04-11T02:12:09.496Z,72.13
2018-04-11T02:14:37.043Z,71.72
2018-04-11T02:17:04.634Z,72.27
2018-04-11T02:19:32.194Z,72.47
2018-04-11T02:21:59.764Z,72.26
2018-04-11T02:24:27.310Z,72.48
2018-04-11T02:26:54.847Z,72.34
2018-04-11T02:29:22.370Z,72.53
2018-04-11T02:31:50.010Z,72.25
2018-04-11T02:34:17.535Z,72.82
2018-04-11T02:36:45.083Z,72.77
2018-04-11T02:39:12.690Z,73.13
2018-04-11T02:41:40.251Z,72.77
2018-04-11T02:44:07.798Z,73.25
2018-04-11T02:46:35.372Z,73.76
2018-04-11T02:49:02.895Z,74.03
2018-04-11T02:51:30.485Z,74.34
2018-04-11T02:53:58.015Z,74.84
2018-04-11T02:56:25.541Z,75.44
2018-04-11T02:58:53.054Z,75.63
2018-04-11T03:01:20.595Z,76.17
2018-04-11T03:03:48.124Z,76.64
2018-04-11T03:06:15.675Z,76.66
2018-04-11T03:08:43.206Z,76.67
2018-04-11T03:11:10.764Z,76.89
2018-04-11T03:13:38.292Z,76.95
2018-04-11T03:16:05.820Z,77.11
2018-04-11T03:18:33.435Z,76.79
2018-04-11T03:21:01.002Z,77.03
2018-04-11T03:23:28.524Z,77.13
2018-04-11T03:25:56.051Z,76.73
2018-04-11T03:28:23.686Z,77.04
2018-04-11T03:30:51.211Z,76.83
2018-04-11T03:33:18.791Z,76.87
2018-04-11T03:35:46.319Z,76.77
2018-04-11T03:38:13.851Z,76.91
2018-04-11T03:40:41.471Z,76.65
2018-04-11T03:43:09.000Z,76.57
2018-04-11T03:45:36.638Z,76.62
2018-04-11T03:48:04.151Z,76.16
2018-04-11T03:50:31.683Z,76.08
2018-04-11T03:52:59.252Z,76.51
2018-04-11T03:55:26.843Z,76.41
2018-04-11T03:57:54.397Z,76.03
2018-04-11T04:00:21.968Z,75.87
2018-04-11T04:02:49.522Z,76.27
2018-04-11T04:05:17.087Z,76.41
2018-04-11T04:07:44.606Z,76.24
2018-04-11T04:10:12.207Z,76.22
2018-04-11T04:12:39.762Z,76.05
2018-04-11T04:15:19.295Z,75.93
2018-04-11T04:17:58.879Z,76.38
2018-04-11T04:20:36.438Z,76.33
2018-04-11T04:23:03.990Z,75.98
2018-04-11T04:25:31.532Z,75.93
2018-04-11T04:27:59.127Z,76.42
2018-04-11T04:30:26.634Z,76.41
2018-04-11T04:32:54.202Z,76.64
2018-04-11T04:35:21.805Z,77.14
2018-04-11T04:37:49.351Z,76.95
2018-04-11T04:40:16.883Z,76.90
2018-04-11T04:42:44.412Z,76.98
2018-04-11T04:45:11.942Z,76.93
2018-04-11T04:47:39.503Z,76.86
2018-04-11T04:50:07.063Z,77.24
2018-04-11T04:52:34.578Z,76.88
2018-04-11T04:55:02.183Z,76.71
2018-04-11T04:57:29.727Z,76.68
2018-04-11T04:59:57.268Z,76.35
2018-04-11T05:02:24.820Z,76.72
2018-04-11T05:04:52.423Z,76.53
2018-04-11T05:07:19.954Z,76.60
2018-04-11T05:09:47.472Z,76.54
2018-04-11T05:12:15.099Z,76.80
2018-04-11T05:14:42.665Z,77.49
2018-04-11T05:17:10.224Z,77.52
2018-04-11T05:19:37.783Z,77.58
2018-04-11T05:22:05.300Z,77.60
2018-04-11T05:24:32.859Z,77.06
2018-04-11T05:27:00.464Z,77.16
2018-04-11T05:29:27.978Z,76.83
2018-04-11T05:31:55.521Z,76.88
2018-04-11T05:34:23.144Z,76.50
2018-04-11T05:36:50.659Z,76.55
2018-04-11T05:39:18.263Z,76.40
2018-04-11T05:41:45.791Z,76.41
2018-04-11T05:44:13.383Z,76.40
2018-04-11T05:46:40.944Z,76.23
2018-04-11T05:49:08.458Z,76.92
2018-04-11T05:51:36.167Z,77.51
2018-04-11T05:54:03.697Z,78.19
2018-04-11T05:56:31.222Z,77.68
2018-04-11T05:58:58.833Z,77.68
2018-04-11T06:01:26.391Z,77.02
2018-04-11T06:03:53.950Z,76.95
2018-04-11T06:06:21.522Z,75.69
2018-04-11T06:08:49.055Z,75.44
2018-04-11T06:11:16.642Z,73.87
2018-04-11T06:13:44.190Z,72.09
2018-04-11T06:16:11.729Z,71.57
2018-04-11T06:18:39.322Z,71.03
2018-04-11T06:21:06.843Z,71.18
2018-04-11T06:23:34.412Z,69.42
2018-04-11T06:26:02.008Z,70.60
2018-04-11T06:28:29.552Z,69.18
2018-04-11T06:30:57.078Z,68.46
2018-04-11T06:33:24.646Z,67.88
2018-04-11T06:35:52.349Z,67.86
2018-04-11T06:38:19.876Z,67.51
2018-04-11T06:40:47.400Z,67.28
2018-04-11T06:43:14.979Z,67.58
2018-04-11T06:45:42.585Z,65.73
2018-04-11T06:48:10.116Z,66.32
2018-04-11T06:50:37.710Z,66.07
2018-04-11T06:53:05.236Z,64.07
2018-04-11T06:55:32.781Z,64.69
2018-04-11T06:58:00.311Z,63.08
2018-04-11T07:00:27.835Z,61.32
2018-04-11T07:02:55.365Z,60.11
2018-04-11T07:05:22.983Z,60.21
2018-04-11T07:07:50.631Z,58.87
2018-04-11T07:10:18.181Z,59.71
2018-04-11T07:12:45.752Z,59.25
2018-04-11T07:15:13.294Z,58.59
2018-04-11T07:17:40.823Z,59.02
2018-04-11T07:20:08.359Z,56.49
2018-04-11T07:22:35.896Z,56.65
2018-04-11T07:25:03.430Z,55.47
2018-04-11T07:27:30.968Z,56.75
2018-04-11T07:29:58.523Z,55.59
2018-04-11T07:32:26.115Z,54.33
2018-04-11T07:34:53.660Z,55.00
2018-04-11T07:37:21.245Z,52.72
2018-04-11T07:39:48.777Z,53.86
2018-04-11T07:42:16.392Z,54.35
2018-04-11T07:44:43.914Z,53.15
2018-04-11T07:47:11.492Z,55.09
2018-04-11T07:49:39.050Z,52.64
2018-04-11T07:52:06.576Z,52.25
2018-04-11T07:54:34.167Z,50.16
2018-04-11T07:57:01.726Z,49.91
2018-04-11T07:59:29.275Z,52.52
2018-04-11T08:01:56.823Z,52.51
2018-04-11T08:04:24.343Z,51.58
2018-04-11T08:06:51.869Z,49.93
2018-04-11T08:09:19.430Z,48.33
2018-04-11T08:11:46.990Z,48.61
2018-04-11T08:14:14.554Z,46.33
2018-04-11T08:16:42.076Z,46.23
2018-04-11T08:19:09.603Z,47.48
2018-04-11T08:21:37.344Z,47.38
2018-04-11T08:24:04.312Z,46.73
2018-04-11T08:26:31.837Z,47.09
2018-04-11T08:28:59.367Z,46.98
2018-04-11T08:31:26.907Z,46.31
2018-04-11T08:33:54.470Z,46.33
2018-04-11T08:36:22.077Z,45.33
2018-04-11T08:38:49.623Z,45.74
2018-04-11T08:41:17.147Z,45.84
2018-04-11T08:43:44.758Z,47.10
2018-04-11T08:46:12.293Z,45.89
2018-04-11T08:48:39.819Z,43.66
2018-04-11T08:51:07.347Z,45.17
2018-04-11T08:53:34.897Z,46.38
2018-04-11T08:56:02.446Z,45.05
2018-04-11T08:58:29.980Z,44.25
2018-04-11T09:00:57.590Z,43.52
2018-04-11T09:03:25.245Z,42.37
2018-04-11T09:05:52.897Z,40.88
2018-04-11T09:08:20.431Z,41.88
2018-04-11T09:10:48.042Z,42.68
2018-04-11T09:13:15.581Z,44.18
2018-04-11T09:15:43.149Z,40.50
2018-04-11T09:18:10.799Z,40.04
2018-04-11T09:20:38.327Z,38.58
2018-04-11T09:23:05.847Z,36.85
2018-04-11T09:25:33.481Z,37.18
2018-04-11T09:28:01.007Z,37.17
2018-04-11T09:30:28.602Z,35.36
2018-04-11T09:32:56.972Z,38.82
2018-04-11T09:35:24.546Z,35.88
2018-04-11T09:37:52.107Z,36.01
2018-04-11T09:40:19.631Z,35.73
2018-04-11T09:42:47.157Z,33.67
2018-04-11T09:45:14.771Z,36.04
2018-04-11T09:47:42.312Z,32.57
2018-04-11T09:50:09.828Z,35.93
2018-04-11T09:52:37.432Z,34.98
2018-04-11T09:55:05.013Z,35.85
2018-04-11T09:57:32.580Z,35.36
2018-04-11T10:00:00.111Z,36.75
2018-04-11T10:02:27.627Z,36.24
2018-04-11T10:04:55.250Z,35.56
2018-04-11T10:07:22.778Z,37.39
2018-04-11T10:09:50.312Z,33.38
2018-04-11T10:12:17.829Z,35.23
2018-04-11T10:14:45.368Z,34.40
2018-04-11T10:17:12.959Z,34.73
2018-04-11T10:19:40.523Z,33.03
2018-04-11T10:22:08.038Z,33.55
2018-04-11T10:24:35.598Z,35.21
2018-04-11T10:27:03.188Z,33.40
2018-04-11T10:29:30.751Z,33.33
2018-04-11T10:31:58.335Z,32.61
2018-04-11T10:34:25.867Z,36.95
2018-04-11T10:36:53.399Z,37.57
2018-04-11T10:39:20.932Z,40.21
2018-04-11T10:41:48.538Z,37.31
2018-04-11T10:44:16.110Z,42.43
2018-04-11T10:46:43.691Z,44.41
2018-04-11T10:49:11.215Z,43.88
2018-04-11T10:51:38.786Z,46.86
2018-04-11T10:54:06.366Z,45.89
2018-04-11T10:56:33.910Z,47.60
2018-04-11T10:59:01.472Z,47.91
2018-04-11T11:01:29.031Z,47.42
2018-04-11T11:03:56.600Z,46.57
2018-04-11T11:06:24.151Z,47.97
2018-04-11T11:08:51.699Z,48.04
2018-04-11T11:11:19.220Z,48.79
2018-04-11T11:13:46.740Z,50.61
2018-04-11T11:16:14.268Z,51.63
2018-04-11T11:18:41.820Z,50.72
2018-04-11T11:21:09.351Z,52.95
2018-04-11T11:23:36.870Z,53.37
2018-04-11T11:26:04.396Z,52.74
2018-04-11T11:28:31.990Z,53.39
2018-04-11T11:30:59.547Z,52.24
2018-04-11T11:33:27.072Z,52.46
2018-04-11T11:35:54.604Z,52.66
2018-04-11T11:38:22.140Z,53.34
2018-04-11T11:40:49.683Z,51.93
2018-04-11T11:43:17.323Z,53.20
2018-04-11T11:45:44.923Z,53.24
2018-04-11T11:48:12.447Z,53.32
2018-04-11T11:50:40.028Z,54.42
2018-04-11T11:53:07.543Z,54.21
2018-04-11T11:55:35.100Z,54.22
2018-04-11T11:58:02.620Z,53.84
2018-04-11T12:00:30.284Z,53.86
2018-04-11T12:02:57.815Z,54.52
2018-04-11T12:05:25.404Z,54.69
2018-04-11T12:07:52.926Z,55.07
2018-04-11T12:10:20.531Z,55.65
2018-04-11T12:12:48.167Z,55.51
2018-04-11T12:15:15.698Z,55.01
2018-04-11T12:17:43.305Z,55.31
2018-04-11T12:20:10.862Z,55.15
2018-04-11T12:22:38.412Z,55.21
2018-04-11T12:25:05.983Z,54.92
2018-04-11T12:27:33.541Z,55.37
2018-04-11T12:30:01.106Z,55.46
2018-04-11T12:32:28.636Z,55.01
2018-04-11T12:34:56.155Z,54.80
2018-04-11T12:37:23.682Z,55.97
2018-04-11T12:39:51.210Z,55.23
2018-04-11T12:42:18.735Z,55.39
2018-04-11T12:44:46.365Z,55.05
2018-04-11T12:47:13.891Z,55.23
2018-04-11T12:49:41.423Z,55.83
2018-04-11T12:52:09.041Z,56.02
2018-04-11T12:54:36.570Z,55.92
2018-04-11T12:57:04.165Z,55.04
2018-04-11T12:59:31.730Z,55.80
2018-04-11T13:01:59.259Z,55.55
2018-04-11T13:04:26.847Z,55.72
2018-04-11T13:06:54.401Z,56.03
2018-04-11T13:09:21.934Z,55.87
2018-04-11T13:11:49.460Z,56.34
2018-04-11T13:14:17.019Z,56.50
2018-04-11T13:16:44.631Z,56.16
2018-04-11T13:19:12.171Z,55.66
2018-04-11T13:21:39.721Z,55.91
2018-04-11T13:24:07.319Z,56.07
2018-04-11T13:26:34.871Z,57.01
2018-04-11T13:29:02.441Z,56.22
2018-04-11T13:31:30.006Z,56.50
2018-04-11T13:33:57.531Z,55.80
2018-04-11T13:36:25.051Z,55.59
2018-04-11T13:38:52.570Z,56.41
2018-04-11T13:41:20.135Z,56.25
2018-04-11T13:43:47.655Z,55.90
2018-04-11T13:46:15.271Z,56.31
2018-04-11T13:48:42.791Z,55.82
2018-04-11T13:51:10.326Z,55.93
2018-04-11T13:53:37.863Z,56.10
2018-04-11T13:56:05.380Z,56.24
2018-04-11T13:58:33.067Z,55.94
2018-04-11T14:01:00.609Z,56.64
2018-04-11T14:03:28.336Z,56.32
2018-04-11T14:05:55.871Z,56.77
2018-04-11T14:08:23.543Z,56.75
2018-04-11T14:10:51.035Z,57.21
2018-04-11T14:13:18.556Z,56.45
2018-04-11T14:15:46.075Z,55.73
2018-04-11T14:18:13.655Z,56.61
2018-04-11T14:20:41.176Z,56.34
2018-04-11T14:23:08.755Z,56.93
2018-04-11T14:25:36.280Z,57.05
2018-04-11T14:28:03.848Z,57.16
2018-04-11T14:30:31.416Z,57.57
2018-04-11T14:32:58.941Z,57.66
2018-04-11T14:35:26.527Z,57.87
2018-04-11T14:37:54.088Z,57.56
2018-04-11T14:40:21.617Z,57.32
2018-04-11T14:42:49.150Z,57.78
2018-04-11T14:45:16.664Z,57.46
2018-04-11T14:47:44.204Z,57.63
2018-04-11T14:50:11.726Z,58.00
2018-04-11T14:52:39.288Z,57.67
2018-04-11T14:55:06.813Z,57.24
2018-04-11T14:57:34.495Z,57.48
2018-04-11T15:00:02.104Z,57.84
2018-04-11T15:02:29.629Z,57.63
2018-04-11T15:04:57.143Z,57.71
2018-04-11T15:07:24.659Z,57.61
2018-04-11T15:09:52.295Z,57.20
2018-04-11T15:12:19.819Z,57.61
2018-04-11T15:14:47.429Z,57.22
2018-04-11T15:17:14.956Z,57.63
2018-04-11T15:19:42.502Z,57.45
2018-04-11T15:22:10.032Z,57.62
2018-04-11T15:24:37.670Z,57.21
2018-04-11T15:27:05.231Z,57.45
2018-04-11T15:29:32.791Z,57.56
2018-04-11T15:32:00.311Z,57.46
2018-04-11T15:34:27.876Z,57.38
2018-04-11T15:36:55.395Z,57.20
2018-04-11T15:39:22.915Z,57.32
2018-04-11T15:41:50.456Z,57.83
2018-04-11T15:44:18.020Z,57.90
2018-04-11T15:46:45.610Z,58.09
2018-04-11T15:49:13.135Z,58.32
2018-04-11T15:51:40.730Z,58.34
2018-04-11T15:54:08.275Z,58.53
2018-04-11T15:56:35.807Z,58.92
2018-04-11T15:59:03.339Z,59.12
2018-04-11T16:01:30.892Z,59.20
2018-04-11T16:03:58.432Z,59.39
2018-04-11T16:06:25.956Z,59.51
2018-04-11T16:08:53.534Z,59.91
2018-04-11T16:11:21.074Z,59.88
2018-04-11T16:13:48.640Z,60.68
2018-04-11T16:16:16.249Z,60.95
2018-04-11T16:18:43.876Z,60.96
2018-04-11T16:21:11.437Z,60.58
2018-04-11T16:23:38.962Z,60.13
2018-04-11T16:26:06.495Z,60.00
2018-04-11T16:28:34.029Z,60.14
2018-04-11T16:31:01.597Z,59.92
2018-04-11T16:33:29.254Z,60.43
2018-04-11T16:35:56.776Z,60.22
2018-04-11T16:38:24.301Z,60.35
2018-04-11T16:40:51.919Z,60.24
2018-04-11T16:43:19.496Z,60.25
2018-04-11T16:45:47.020Z,60.31
2018-04-11T16:48:14.609Z,60.21
2018-04-11T16:50:42.140Z,60.97
2018-04-11T16:53:09.665Z,60.87
2018-04-11T16:55:37.293Z,61.32
2018-04-11T16:58:04.839Z,61.73
2018-04-11T17:00:32.379Z,61.81
2018-04-11T17:02:59.894Z,61.92
2018-04-11T17:05:27.535Z,62.16
2018-04-11T17:07:55.080Z,62.52
2018-04-11T17:10:22.658Z,62.70
2018-04-11T17:12:50.180Z,63.00
2018-04-11T17:15:17.740Z,63.59
2018-04-11T17:17:45.287Z,63.52
2018-04-11T17:20:12.891Z,64.16
2018-04-11T17:22:52.348Z,64.65
2018-04-11T17:25:31.789Z,64.50
2018-04-11T17:28:11.295Z,64.93
2018-04-11T17:30:50.853Z,64.93
2018-04-11T17:33:18.379Z,64.97
2018-04-11T17:35:45.977Z,65.31
2018-04-11T17:38:13.491Z,65.31
2018-04-11T17:40:41.096Z,65.01
2018-04-11T17:43:08.651Z,65.35
2018-04-11T17:45:36.167Z,65.62
2018-04-11T17:48:03.694Z,65.78
2018-04-11T17:50:31.215Z,65.76
2018-04-11T17:52:58.796Z,65.68
2018-04-11T17:55:26.319Z,66.14
2018-04-11T17:57:53.839Z,66.26
2018-04-11T18:00:21.396Z,66.25
2018-04-11T18:02:49.020Z,66.48
2018-04-11T18:05:16.579Z,66.31
2018-04-11T18:07:44.108Z,67.00
2018-04-11T18:10:11.637Z,66.81
2018-04-11T18:12:39.172Z,67.23
2018-04-11T18:15:06.720Z,67.37
2018-04-11T18:17:34.296Z,67.45
2018-04-11T18:20:01.817Z,67.69
2018-04-11T18:22:29.343Z,67.94
2018-04-11T18:24:56.951Z,67.88
2018-04-11T18:27:24.528Z,67.91
2018-04-11T18:29:52.124Z,68.41
2018-04-11T18:32:19.652Z,68.07
2018-04-11T18:34:47.212Z,68.37
2018-04-11T18:37:14.768Z,68.26
2018-04-11T18:39:42.343Z,68.55
2018-04-11T18:42:09.931Z,68.66
2018-04-11T18:44:37.460Z,68.65
2018-04-11T18:47:05.116Z,68.81
2018-04-11T18:49:32.676Z,68.76
2018-04-11T18:52:00.199Z,69.00
2018-04-11T18:54:27.719Z,69.05
2018-04-11T18:56:55.249Z,69.18
2018-04-11T18:59:22.790Z,68.97
2018-04-11T19:01:50.317Z,69.19
2018-04-11T19:04:17.840Z,69.11
2018-04-11T19:06:45.494Z,69.52
2018-04-11T19:09:13.052Z,69.41
2018-04-11T19:11:40.568Z,69.69
2018-04-11T19:14:08.104Z,69.55
2018-04-11T19:16:35.647Z,69.84
2018-04-11T19:19:03.188Z,70.17
2018-04-11T19:21:30.708Z,70.29
2018-04-11T19:23:58.244Z,70.20
2018-04-11T19:26:25.788Z,70.55
2018-04-11T19:28:53.317Z,70.50
2018-04-11T19:31:20.875Z,70.53
2018-04-11T19:33:48.451Z,70.60
2018-04-11T19:36:16.009Z,70.40
2018-04-11T19:38:43.546Z,70.25
2018-04-11T19:41:11.132Z,70.65
2018-04-11T19:43:38.655Z,70.62
2018-04-11T19:46:06.217Z,70.91
2018-04-11T19:48:33.749Z,70.96
2018-04-11T19:51:01.321Z,71.10
2018-04-11T19:53:28.906Z,70.80
2018-04-11T19:55:56.478Z,71.16
2018-04-11T19:58:24.015Z,71.33
2018-04-11T20:00:51.611Z,71.26
2018-04-11T20:03:19.144Z,71.33
2018-04-11T20:05:46.659Z,71.29
2018-04-11T20:08:14.312Z,71.25
2018-04-11T20:10:41.907Z,71.65
2018-04-11T20:13:09.523Z,71.27
2018-04-11T20:15:37.042Z,71.51
2018-04-11T20:18:04.571Z,71.68
2018-04-11T20:20:32.138Z,71.63
2018-04-11T20:22:59.727Z,71.74
2018-04-11T20:25:27.244Z,71.89
2018-04-11T20:27:54.760Z,72.00
2018-04-11T20:30:22.300Z,71.88
2018-04-11T20:32:49.887Z,72.12
2018-04-11T20:35:17.436Z,71.89
2018-04-11T20:37:44.969Z,72.25
2018-04-11T20:40:12.573Z,72.25
2018-04-11T20:42:40.109Z,72.20
2018-04-11T20:45:07.719Z,72.37
2018-04-11T20:47:35.248Z,72.27
2018-04-11T20:50:02.920Z,72.39
2018-04-11T20:52:30.453Z,72.47
2018-04-11T20:54:58.038Z,72.40
2018-04-11T20:57:25.568Z,72.49
2018-04-11T20:59:53.157Z,72.55
2018-04-11T21:02:20.717Z,72.50
2018-04-11T21:04:48.278Z,72.61
2018-04-11T21:07:15.837Z,72.41
2018-04-11T21:09:43.352Z,72.54
2018-04-11T21:12:10.913Z,72.41
2018-04-11T21:14:38.447Z,72.48
2018-04-11T21:17:05.973Z,72.54
2018-04-11T21:19:33.641Z,72.56
2018-04-11T21:22:01.187Z,72.58
2018-04-11T21:24:28.742Z,72.54
2018-04-11T21:26:56.272Z,72.61
2018-04-11T21:29:23.836Z,72.64
2018-04-11T21:31:51.359Z,72.60
2018-04-11T21:34:18.895Z,72.69
2018-04-11T21:36:46.424Z,72.81
2018-04-11T21:39:13.999Z,72.78
2018-04-11T21:41:41.576Z,72.72
2018-04-11T21:44:09.135Z,72.94
2018-04-11T21:46:36.684Z,73.02
2018-04-11T21:49:04.212Z,72.97
2018-04-11T21:51:31.739Z,73.12
2018-04-11T21:53:59.269Z,73.13
2018-04-11T21:56:26.818Z,73.18
2018-04-11T21:58:54.378Z,73.35
2018-04-11T22:01:21.951Z,73.27
2018-04-11T22:03:49.500Z,73.52
2018-04-11T22:06:17.014Z,73.51
2018-04-11T22:08:44.562Z,73.18
2018-04-11T22:11:12.179Z,73.44
2018-04-11T22:13:39.718Z,73.62
2018-04-11T22:16:07.239Z,73.88
2018-04-11T22:18:34.794Z,73.88
2018-04-11T22:21:02.391Z,74.05
2018-04-11T22:23:29.948Z,74.11
2018-04-11T22:25:57.550Z,74.40
2018-04-11T22:28:25.067Z,74.20
2018-04-11T22:30:52.668Z,74.25
2018-04-11T22:33:20.200Z,74.32
2018-04-11T22:35:47.759Z,74.23
2018-04-11T22:38:15.280Z,74.58
2018-04-11T22:40:42.915Z,74.69
2018-04-11T22:43:10.436Z,74.69
2018-04-11T22:45:37.965Z,74.60
2018-04-11T22:48:05.591Z,74.77
2018-04-11T22:50:33.119Z,74.72
2018-04-11T22:53:00.708Z,74.67
2018-04-11T22:55:28.231Z,74.81
2018-04-11T22:57:55.764Z,74.83
2018-04-11T23:00:23.289Z,74.85
2018-04-11T23:02:50.811Z,74.77
2018-04-11T23:05:18.348Z,74.48
2018-04-11T23:07:45.877Z,74.88
2018-04-11T23:10:13.400Z,75.11
2018-04-11T23:12:40.943Z,75.05
2018-04-11T23:15:08.508Z,75.17
2018-04-11T23:17:36.076Z,75.16
2018-04-11T23:20:03.616Z,75.15
2018-04-11T23:22:31.159Z,75.06
2018-04-11T23:24:58.687Z,75.19
2018-04-11T23:27:26.216Z,75.15
2018-04-11T23:29:53.763Z,75.33
2018-04-11T23:32:22.527Z,75.21
2018-04-11T23:34:50.053Z,75.26
2018-04-11T23:37:17.599Z,75.39
2018-04-11T23:39:45.179Z,75.60
2018-04-11T23:42:12.739Z,75.61
2018-04-11T23:44:40.251Z,75.80
2018-04-11T23:47:07.846Z,75.75
2018-04-11T23:49:35.413Z,75.64
2018-04-11T23:52:02.931Z,75.69
2018-04-11T23:54:30.460Z,75.87
2018-04-11T23:56:58.092Z,75.70
2018-04-11T23:59:25.644Z,75.83
